createdAt,value
2019-05-26T00:00:27.871Z,0.00
2019-05-26T00:01:27.847Z,0.00
2019-05-26T00:02:27.836Z,0.00
2019-05-26T00:03:27.825Z,0.00
2019-05-26T00:04:27.813Z,0.00
2019-05-26T00:05:27.817Z,0.00
2019-05-26T00:06:27.839Z,0.00
2019-05-26T00:07:30.728Z,0.00
2019-05-26T00:08:27.766Z,0.00
2019-05-26T00:09:27.759Z,0.00
2019-05-26T00:10:27.757Z,0.00
2019-05-26T00:11:27.761Z,0.00
2019-05-26T00:12:27.753Z,0.00
2019-05-26T00:13:27.713Z,0.00
2019-05-26T00:14:27.703Z,0.00
2019-05-26T00:15:27.692Z,0.00
2019-05-26T00:16:27.679Z,0.00
2019-05-26T00:17:27.674Z,0.00
2019-05-26T00:18:27.693Z,0.00
2019-05-26T00:19:27.650Z,0.00
2019-05-26T00:20:27.635Z,0.00
2019-05-26T00:21:27.625Z,0.00
2019-05-26T00:22:27.611Z,0.00
2019-05-26T00:23:27.600Z,0.00
2019-05-26T00:24:27.602Z,0.00
2019-05-26T00:25:27.583Z,0.00
2019-05-26T00:26:27.573Z,0.00
2019-05-26T00:27:27.556Z,0.00
2019-05-26T00:28:27.549Z,0.00
2019-05-26T00:29:27.549Z,0.00
2019-05-26T00:30:27.522Z,0.00
2019-05-26T00:31:27.520Z,0.00
2019-05-26T00:32:27.505Z,0.00
2019-05-26T00:33:27.489Z,0.00
2019-05-26T00:34:27.489Z,0.00
2019-05-26T00:35:27.467Z,0.00
2019-05-26T00:36:27.456Z,0.00
2019-05-26T00:37:27.462Z,0.00
2019-05-26T00:38:27.433Z,0.00
2019-05-26T00:39:27.441Z,0.00
2019-05-26T00:40:27.409Z,0.00
2019-05-26T00:41:27.401Z,0.00
2019-05-26T00:42:27.389Z,0.00
2019-05-26T00:43:27.383Z,0.00
2019-05-26T00:44:27.366Z,0.00
2019-05-26T00:45:27.371Z,0.00
2019-05-26T00:46:27.346Z,0.00
2019-05-26T00:47:27.335Z,0.00
2019-05-26T00:48:27.321Z,0.00
2019-05-26T00:49:27.321Z,0.00
2019-05-26T00:50:27.314Z,0.00
2019-05-26T00:51:27.287Z,0.00
2019-05-26T00:52:27.277Z,0.00
2019-05-26T00:53:27.267Z,0.00
2019-05-26T00:54:27.257Z,0.00
2019-05-26T00:55:27.269Z,0.00
2019-05-26T00:56:27.248Z,0.00
2019-05-26T00:57:27.222Z,0.00
2019-05-26T00:58:27.215Z,0.00
2019-05-26T00:59:27.205Z,0.00
2019-05-26T01:00:27.189Z,0.00
2019-05-26T01:01:27.191Z,0.00
2019-05-26T01:02:27.183Z,0.00
2019-05-26T01:03:27.158Z,0.00
2019-05-26T01:04:27.142Z,0.00
2019-05-26T01:05:27.134Z,0.00
2019-05-26T01:06:27.124Z,0.00
2019-05-26T01:07:27.119Z,0.00
2019-05-26T01:08:27.111Z,0.00
2019-05-26T01:09:27.104Z,0.00
2019-05-26T01:10:27.077Z,0.00
2019-05-26T01:11:27.065Z,0.00
2019-05-26T01:12:27.054Z,0.00
2019-05-26T01:13:27.090Z,0.00
2019-05-26T01:14:27.032Z,0.00
2019-05-26T01:15:27.022Z,0.00
2019-05-26T01:16:27.008Z,0.00
2019-05-26T01:17:26.998Z,0.00
2019-05-26T01:18:26.989Z,0.00
2019-05-26T01:19:27.008Z,0.00
2019-05-26T01:20:26.983Z,0.00
2019-05-26T01:21:26.955Z,0.00
2019-05-26T01:22:26.959Z,0.00
2019-05-26T01:23:26.989Z,0.00
2019-05-26T01:24:26.922Z,0.00
2019-05-26T01:25:26.915Z,0.00
2019-05-26T01:26:26.916Z,0.00
2019-05-26T01:27:26.892Z,0.00
2019-05-26T01:28:26.885Z,0.00
2019-05-26T01:29:26.866Z,0.00
2019-05-26T01:30:26.852Z,0.00
2019-05-26T01:31:26.863Z,0.00
2019-05-26T01:32:26.840Z,0.00
2019-05-26T01:33:26.818Z,0.00
2019-05-26T01:34:26.812Z,0.00
2019-05-26T01:35:26.796Z,0.00
2019-05-26T01:36:26.787Z,0.00
2019-05-26T01:37:26.796Z,0.00
2019-05-26T01:38:26.789Z,0.00
2019-05-26T01:39:26.751Z,0.00
2019-05-26T01:40:26.739Z,0.00
2019-05-26T01:41:26.731Z,0.00
2019-05-26T01:42:26.716Z,0.00
2019-05-26T01:43:26.727Z,0.00
2019-05-26T01:44:26.703Z,0.00
2019-05-26T01:45:26.688Z,0.00
2019-05-26T01:46:26.673Z,0.00
2019-05-26T01:47:26.664Z,0.00
2019-05-26T01:48:26.652Z,0.00
2019-05-26T01:49:26.680Z,0.00
2019-05-26T01:50:26.637Z,0.00
2019-05-26T01:51:26.616Z,0.00
2019-05-26T01:52:26.606Z,0.00
2019-05-26T01:53:26.599Z,0.00
2019-05-26T01:54:26.598Z,0.00
2019-05-26T01:55:26.576Z,0.00
2019-05-26T01:56:26.582Z,0.00
2019-05-26T01:57:26.565Z,0.00
2019-05-26T01:58:26.550Z,0.00
2019-05-26T01:59:26.529Z,0.00
2019-05-26T02:00:26.535Z,0.00
2019-05-26T02:01:26.508Z,0.00
2019-05-26T02:02:26.507Z,0.00
2019-05-26T02:03:26.484Z,0.00
2019-05-26T02:04:26.471Z,0.00
2019-05-26T02:05:26.461Z,0.00
2019-05-26T02:06:26.479Z,0.00
2019-05-26T02:07:26.439Z,0.00
2019-05-26T02:08:38.894Z,0.00
2019-05-26T02:09:27.442Z,0.00
2019-05-26T02:10:26.405Z,0.00
2019-05-26T02:11:26.403Z,0.00
2019-05-26T02:12:26.383Z,0.00
2019-05-26T02:13:26.375Z,0.00
2019-05-26T02:14:26.389Z,0.00
2019-05-26T02:15:26.443Z,0.00
2019-05-26T02:16:26.341Z,0.00
2019-05-26T02:17:26.331Z,0.00
2019-05-26T02:18:26.315Z,0.00
2019-05-26T02:19:26.304Z,0.00
2019-05-26T02:20:26.327Z,0.00
2019-05-26T02:21:26.313Z,0.00
2019-05-26T02:22:26.277Z,0.00
2019-05-26T02:23:26.261Z,0.00
2019-05-26T02:24:26.251Z,0.00
2019-05-26T02:25:26.246Z,0.00
2019-05-26T02:26:26.251Z,0.00
2019-05-26T02:27:26.233Z,0.00
2019-05-26T02:28:26.207Z,0.00
2019-05-26T02:29:26.202Z,0.00
2019-05-26T02:30:26.188Z,0.00
2019-05-26T02:31:26.173Z,0.00
2019-05-26T02:32:26.183Z,0.00
2019-05-26T02:33:26.154Z,0.00
2019-05-26T02:34:26.142Z,0.00
2019-05-26T02:35:26.129Z,0.00
2019-05-26T02:36:26.119Z,0.00
2019-05-26T02:37:26.116Z,0.00
2019-05-26T02:38:34.751Z,0.00
2019-05-26T02:39:26.089Z,0.00
2019-05-26T02:40:26.124Z,0.00
2019-05-26T02:41:26.071Z,0.00
2019-05-26T02:42:26.056Z,0.00
2019-05-26T02:43:26.058Z,0.00
2019-05-26T02:44:26.030Z,0.00
2019-05-26T02:45:26.024Z,0.00
2019-05-26T02:46:26.020Z,0.00
2019-05-26T02:47:26.003Z,0.00
2019-05-26T02:48:25.993Z,0.00
2019-05-26T02:49:26.004Z,0.00
2019-05-26T02:50:25.979Z,0.00
2019-05-26T02:51:25.972Z,0.00
2019-05-26T02:52:25.945Z,0.00
2019-05-26T02:53:25.931Z,0.00
2019-05-26T02:54:25.945Z,0.00
2019-05-26T02:55:25.925Z,0.00
2019-05-26T02:56:25.905Z,0.00
2019-05-26T02:57:25.900Z,0.00
2019-05-26T02:58:25.913Z,0.00
2019-05-26T02:59:25.869Z,4.00
2019-05-26T03:00:25.857Z,4.00
2019-05-26T03:01:25.857Z,0.00
2019-05-26T03:02:25.849Z,0.00
2019-05-26T03:03:25.824Z,4.00
2019-05-26T03:04:25.834Z,4.00
2019-05-26T03:05:25.805Z,0.00
2019-05-26T03:06:25.787Z,0.00
2019-05-26T03:07:25.789Z,4.00
2019-05-26T03:08:25.782Z,4.00
2019-05-26T03:09:25.760Z,0.00
2019-05-26T03:10:25.741Z,4.00
2019-05-26T03:11:25.740Z,4.00
2019-05-26T03:12:25.725Z,0.00
2019-05-26T03:13:25.722Z,4.00
2019-05-26T03:14:25.729Z,4.00
2019-05-26T03:15:25.693Z,4.00
2019-05-26T03:16:25.677Z,4.00
2019-05-26T03:17:25.672Z,8.00
2019-05-26T03:18:25.650Z,4.00
2019-05-26T03:19:25.656Z,8.00
2019-05-26T03:20:25.659Z,8.00
2019-05-26T03:21:25.620Z,8.00
2019-05-26T03:22:25.612Z,8.00
2019-05-26T03:23:25.598Z,8.00
2019-05-26T03:24:25.598Z,12.00
2019-05-26T03:25:25.597Z,12.00
2019-05-26T03:26:25.566Z,12.00
2019-05-26T03:27:25.574Z,12.00
2019-05-26T03:28:25.549Z,12.00
2019-05-26T03:29:25.559Z,12.00
2019-05-26T03:30:25.528Z,16.00
2019-05-26T03:31:25.542Z,20.00
2019-05-26T03:32:25.503Z,16.00
2019-05-26T03:33:25.511Z,16.00
2019-05-26T03:34:25.481Z,20.00
2019-05-26T03:35:25.486Z,20.00
2019-05-26T03:36:25.455Z,24.00
2019-05-26T03:37:25.476Z,24.00
2019-05-26T03:38:25.431Z,20.00
2019-05-26T03:39:42.660Z,20.00
2019-05-26T03:40:26.417Z,28.00
2019-05-26T03:41:25.400Z,32.00
2019-05-26T03:42:25.405Z,28.00
2019-05-26T03:43:25.374Z,24.00
2019-05-26T03:44:25.362Z,28.00
2019-05-26T03:45:25.375Z,36.00
2019-05-26T03:46:25.340Z,40.00
2019-05-26T03:47:25.357Z,40.00
2019-05-26T03:48:25.319Z,40.00
2019-05-26T03:49:25.371Z,36.00
2019-05-26T03:50:25.299Z,44.00
2019-05-26T03:51:25.313Z,48.00
2019-05-26T03:52:25.279Z,60.00
2019-05-26T03:53:25.276Z,56.00
2019-05-26T03:54:25.266Z,48.00
2019-05-26T03:55:25.247Z,48.00
2019-05-26T03:56:25.235Z,56.00
2019-05-26T03:57:25.242Z,72.00
2019-05-26T03:58:25.213Z,68.00
2019-05-26T03:59:25.218Z,60.00
2019-05-26T04:00:25.185Z,56.00
2019-05-26T04:01:25.175Z,64.00
2019-05-26T04:02:25.168Z,76.00
2019-05-26T04:03:25.167Z,84.00
2019-05-26T04:04:25.183Z,76.00
2019-05-26T04:05:25.132Z,68.00
2019-05-26T04:06:25.118Z,72.00
2019-05-26T04:07:25.107Z,84.00
2019-05-26T04:08:25.102Z,96.00
2019-05-26T04:09:25.103Z,92.00
2019-05-26T04:10:25.095Z,84.00
2019-05-26T04:11:25.066Z,76.00
2019-05-26T04:12:25.068Z,88.00
2019-05-26T04:13:25.043Z,100.00
2019-05-26T04:14:25.040Z,116.00
2019-05-26T04:15:25.037Z,108.00
2019-05-26T04:16:25.026Z,92.00
2019-05-26T04:17:25.002Z,88.00
2019-05-26T04:18:25.005Z,104.00
2019-05-26T04:19:24.972Z,132.00
2019-05-26T04:20:24.970Z,128.00
2019-05-26T04:21:24.960Z,116.00
2019-05-26T04:22:24.941Z,108.00
2019-05-26T04:23:24.986Z,120.00
2019-05-26T04:24:24.929Z,128.00
2019-05-26T04:25:24.906Z,168.00
2019-05-26T04:26:24.898Z,168.00
2019-05-26T04:27:24.885Z,160.00
2019-05-26T04:28:24.875Z,136.00
2019-05-26T04:29:24.887Z,160.00
2019-05-26T04:30:24.854Z,188.00
2019-05-26T04:31:24.846Z,216.00
2019-05-26T04:32:24.828Z,224.00
2019-05-26T04:33:24.818Z,216.00
2019-05-26T04:34:24.827Z,204.00
2019-05-26T04:35:24.806Z,228.00
2019-05-26T04:36:24.786Z,260.00
2019-05-26T04:37:24.776Z,292.00
2019-05-26T04:38:24.770Z,316.00
2019-05-26T04:39:24.779Z,316.00
2019-05-26T04:40:27.660Z,276.00
2019-05-26T04:41:24.750Z,292.00
2019-05-26T04:42:24.719Z,356.00
2019-05-26T04:43:24.722Z,380.00
2019-05-26T04:44:24.704Z,376.00
2019-05-26T04:45:24.687Z,380.00
2019-05-26T04:46:24.682Z,360.00
2019-05-26T04:47:24.683Z,332.00
2019-05-26T04:48:24.651Z,364.00
2019-05-26T04:49:24.673Z,412.00
2019-05-26T04:50:24.626Z,436.00
2019-05-26T04:51:24.615Z,432.00
2019-05-26T04:52:24.607Z,420.00
2019-05-26T04:53:24.596Z,424.00
2019-05-26T04:54:24.583Z,468.00
2019-05-26T04:55:24.608Z,444.00
2019-05-26T04:56:24.559Z,504.00
2019-05-26T04:57:24.601Z,532.00
2019-05-26T04:58:24.552Z,516.00
2019-05-26T04:59:24.563Z,444.00
2019-05-26T05:00:24.521Z,444.00
2019-05-26T05:01:24.506Z,396.00
2019-05-26T05:02:24.508Z,404.00
2019-05-26T05:03:24.503Z,432.00
2019-05-26T05:04:24.470Z,476.00
2019-05-26T05:05:24.470Z,460.00
2019-05-26T05:06:24.453Z,460.00
2019-05-26T05:07:28.097Z,452.00
2019-05-26T05:08:24.456Z,436.00
2019-05-26T05:09:24.429Z,420.00
2019-05-26T05:10:39.225Z,608.00
2019-05-26T05:11:25.468Z,640.00
2019-05-26T05:12:24.386Z,620.00
2019-05-26T05:13:25.115Z,508.00
2019-05-26T05:14:24.372Z,488.00
2019-05-26T05:15:24.347Z,556.00
2019-05-26T05:16:24.337Z,576.00
2019-05-26T05:17:24.365Z,684.00
2019-05-26T05:18:24.319Z,780.00
2019-05-26T05:19:24.314Z,664.00
2019-05-26T05:20:24.290Z,508.00
2019-05-26T05:21:24.281Z,448.00
2019-05-26T05:22:24.269Z,624.00
2019-05-26T05:23:24.300Z,700.00
2019-05-26T05:24:24.248Z,588.00
2019-05-26T05:25:24.255Z,796.00
2019-05-26T05:26:24.263Z,648.00
2019-05-26T05:27:24.231Z,820.00
2019-05-26T05:28:24.201Z,736.00
2019-05-26T05:29:24.187Z,728.00
2019-05-26T05:30:24.299Z,892.00
2019-05-26T05:31:24.186Z,788.00
2019-05-26T05:32:24.157Z,708.00
2019-05-26T05:33:24.183Z,764.00
2019-05-26T05:34:24.137Z,592.00
2019-05-26T05:35:24.155Z,516.00
2019-05-26T05:36:24.114Z,472.00
2019-05-26T05:37:25.331Z,444.00
2019-05-26T05:38:24.090Z,404.00
2019-05-26T05:39:24.111Z,376.00
2019-05-26T05:40:24.166Z,408.00
2019-05-26T05:41:24.058Z,448.00
2019-05-26T05:42:24.064Z,496.00
2019-05-26T05:43:24.048Z,472.00
2019-05-26T05:44:24.036Z,468.00
2019-05-26T05:45:24.010Z,460.00
2019-05-26T05:46:24.001Z,488.00
2019-05-26T05:47:23.993Z,552.00
2019-05-26T05:48:23.987Z,588.00
2019-05-26T05:49:24.001Z,700.00
2019-05-26T05:50:23.957Z,704.00
2019-05-26T05:51:23.951Z,740.00
2019-05-26T05:52:23.950Z,904.00
2019-05-26T05:53:23.920Z,1760.00
2019-05-26T05:54:23.915Z,1464.00
2019-05-26T05:55:23.943Z,2052.00
2019-05-26T05:56:23.889Z,876.00
2019-05-26T05:57:23.881Z,1096.00
2019-05-26T05:58:23.870Z,1348.00
2019-05-26T05:59:23.863Z,2116.00
2019-05-26T06:00:24.014Z,2716.00
2019-05-26T06:01:23.835Z,2904.00
2019-05-26T06:02:23.826Z,1876.00
2019-05-26T06:03:23.828Z,2500.00
2019-05-26T06:04:23.801Z,1824.00
2019-05-26T06:05:23.811Z,2368.00
2019-05-26T06:06:23.794Z,2016.00
2019-05-26T06:07:23.767Z,1928.00
2019-05-26T06:08:23.760Z,1768.00
2019-05-26T06:09:23.747Z,1892.00
2019-05-26T06:10:23.733Z,2216.00
2019-05-26T06:11:23.751Z,2156.00
2019-05-26T06:12:23.707Z,2348.00
2019-05-26T06:13:23.700Z,2624.00
2019-05-26T06:14:23.779Z,2492.00
2019-05-26T06:15:23.675Z,2292.00
2019-05-26T06:16:23.692Z,1664.00
2019-05-26T06:17:23.728Z,1676.00
2019-05-26T06:18:23.649Z,1432.00
2019-05-26T06:19:23.630Z,2100.00
2019-05-26T06:20:23.646Z,1944.00
2019-05-26T06:21:23.620Z,1444.00
2019-05-26T06:22:23.615Z,1436.00
2019-05-26T06:23:23.615Z,1200.00
2019-05-26T06:24:23.577Z,1204.00
2019-05-26T06:25:23.567Z,1512.00
2019-05-26T06:26:23.562Z,1912.00
2019-05-26T06:27:23.543Z,1576.00
2019-05-26T06:28:23.634Z,1092.00
2019-05-26T06:29:23.527Z,1088.00
2019-05-26T06:30:23.548Z,1228.00
2019-05-26T06:31:23.507Z,2260.00
2019-05-26T06:32:23.503Z,2444.00
2019-05-26T06:33:23.494Z,5324.00
2019-05-26T06:34:23.498Z,3248.00
2019-05-26T06:35:23.459Z,3260.00
2019-05-26T06:36:23.447Z,3104.00
2019-05-26T06:37:23.467Z,1512.00
2019-05-26T06:38:23.427Z,1624.00
2019-05-26T06:39:23.413Z,7060.00
2019-05-26T06:40:23.413Z,1676.00
2019-05-26T06:41:33.079Z,1340.00
2019-05-26T06:42:24.387Z,1076.00
2019-05-26T06:43:23.383Z,1100.00
2019-05-26T06:44:23.358Z,1092.00
2019-05-26T06:45:23.362Z,1164.00
2019-05-26T06:46:23.334Z,1156.00
2019-05-26T06:47:23.328Z,1176.00
2019-05-26T06:48:26.570Z,1148.00
2019-05-26T06:49:23.327Z,1072.00
2019-05-26T06:50:23.312Z,920.00
2019-05-26T06:51:23.283Z,804.00
2019-05-26T06:52:23.274Z,720.00
2019-05-26T06:53:23.256Z,692.00
2019-05-26T06:54:23.252Z,608.00
2019-05-26T06:55:23.236Z,536.00
2019-05-26T06:56:23.254Z,536.00
2019-05-26T06:57:23.242Z,564.00
2019-05-26T06:58:23.205Z,600.00
2019-05-26T06:59:23.230Z,564.00
2019-05-26T07:00:23.182Z,544.00
2019-05-26T07:01:23.181Z,536.00
2019-05-26T07:02:23.193Z,524.00
2019-05-26T07:03:23.158Z,600.00
2019-05-26T07:04:23.143Z,672.00
2019-05-26T07:05:23.124Z,656.00
2019-05-26T07:06:23.115Z,644.00
2019-05-26T07:07:23.103Z,656.00
2019-05-26T07:08:23.117Z,716.00
2019-05-26T07:09:23.096Z,680.00
2019-05-26T07:10:23.075Z,724.00
2019-05-26T07:11:23.062Z,744.00
2019-05-26T07:12:23.048Z,764.00
2019-05-26T07:13:23.038Z,792.00
2019-05-26T07:14:23.030Z,796.00
2019-05-26T07:15:23.041Z,780.00
2019-05-26T07:16:36.958Z,768.00
2019-05-26T07:17:23.995Z,740.00
2019-05-26T07:18:22.985Z,728.00
2019-05-26T07:19:22.974Z,704.00
2019-05-26T07:20:22.971Z,688.00
2019-05-26T07:21:22.948Z,676.00
2019-05-26T07:22:22.940Z,664.00
2019-05-26T07:23:22.949Z,684.00
2019-05-26T07:24:22.914Z,692.00
2019-05-26T07:25:22.919Z,676.00
2019-05-26T07:26:22.909Z,652.00
2019-05-26T07:27:22.883Z,564.00
2019-05-26T07:28:22.885Z,580.00
2019-05-26T07:29:22.895Z,556.00
2019-05-26T07:30:23.607Z,524.00
2019-05-26T07:31:22.842Z,544.00
2019-05-26T07:32:22.844Z,580.00
2019-05-26T07:33:22.851Z,612.00
2019-05-26T07:34:22.807Z,652.00
2019-05-26T07:35:22.797Z,700.00
2019-05-26T07:36:22.787Z,720.00
2019-05-26T07:37:22.810Z,836.00
2019-05-26T07:38:22.773Z,828.00
2019-05-26T07:39:22.752Z,832.00
2019-05-26T07:40:22.758Z,840.00
2019-05-26T07:41:22.726Z,864.00
2019-05-26T07:42:22.715Z,872.00
2019-05-26T07:43:22.707Z,952.00
2019-05-26T07:44:22.722Z,1156.00
2019-05-26T07:45:22.684Z,1144.00
2019-05-26T07:46:22.683Z,1280.00
2019-05-26T07:47:22.664Z,1312.00
2019-05-26T07:48:22.652Z,1152.00
2019-05-26T07:49:22.639Z,1112.00
2019-05-26T07:50:22.650Z,1008.00
2019-05-26T07:51:22.616Z,988.00
2019-05-26T07:52:22.608Z,992.00
2019-05-26T07:53:22.656Z,1160.00
2019-05-26T07:54:25.591Z,940.00
2019-05-26T07:55:22.569Z,880.00
2019-05-26T07:56:22.593Z,792.00
2019-05-26T07:57:22.550Z,820.00
2019-05-26T07:58:22.547Z,844.00
2019-05-26T07:59:22.550Z,832.00
2019-05-26T08:00:22.553Z,808.00
2019-05-26T08:01:24.505Z,792.00
2019-05-26T08:02:22.495Z,812.00
2019-05-26T08:03:22.514Z,812.00
2019-05-26T08:04:22.491Z,816.00
2019-05-26T08:05:22.466Z,712.00
2019-05-26T08:06:22.449Z,708.00
2019-05-26T08:07:23.288Z,772.00
2019-05-26T08:08:22.456Z,836.00
2019-05-26T08:09:22.449Z,880.00
2019-05-26T08:10:23.273Z,936.00
2019-05-26T08:11:22.394Z,1052.00
2019-05-26T08:12:26.987Z,940.00
2019-05-26T08:13:23.378Z,944.00
2019-05-26T08:14:22.382Z,1012.00
2019-05-26T08:15:22.381Z,908.00
2019-05-26T08:16:22.343Z,852.00
2019-05-26T08:17:22.330Z,852.00
2019-05-26T08:18:22.320Z,820.00
2019-05-26T08:19:22.308Z,844.00
2019-05-26T08:20:22.320Z,800.00
2019-05-26T08:21:22.291Z,712.00
2019-05-26T08:22:22.281Z,744.00
2019-05-26T08:23:22.291Z,772.00
2019-05-26T08:24:22.255Z,864.00
2019-05-26T08:25:22.258Z,928.00
2019-05-26T08:26:22.236Z,988.00
2019-05-26T08:27:22.234Z,1064.00
2019-05-26T08:28:22.207Z,1112.00
2019-05-26T08:29:22.195Z,1080.00
2019-05-26T08:30:22.198Z,1132.00
2019-05-26T08:31:22.201Z,1236.00
2019-05-26T08:32:22.185Z,1412.00
2019-05-26T08:33:22.154Z,1628.00
2019-05-26T08:34:22.139Z,1812.00
2019-05-26T08:35:22.146Z,1660.00
2019-05-26T08:36:22.127Z,1796.00
2019-05-26T08:37:22.134Z,1712.00
2019-05-26T08:38:22.111Z,1476.00
2019-05-26T08:39:22.120Z,1240.00
2019-05-26T08:40:22.078Z,1008.00
2019-05-26T08:41:22.066Z,1112.00
2019-05-26T08:42:27.357Z,1144.00
2019-05-26T08:43:23.048Z,1028.00
2019-05-26T08:44:22.032Z,1012.00
2019-05-26T08:45:22.732Z,996.00
2019-05-26T08:46:22.027Z,988.00
2019-05-26T08:47:22.002Z,976.00
2019-05-26T08:48:22.026Z,1060.00
2019-05-26T08:49:21.973Z,1024.00
2019-05-26T08:50:29.520Z,992.00
2019-05-26T08:51:21.954Z,968.00
2019-05-26T08:52:21.943Z,1064.00
2019-05-26T08:53:21.944Z,1160.00
2019-05-26T08:54:21.946Z,1224.00
2019-05-26T08:55:21.916Z,1280.00
2019-05-26T08:56:21.919Z,1336.00
2019-05-26T08:57:21.885Z,1400.00
2019-05-26T08:58:21.909Z,1412.00
2019-05-26T08:59:21.887Z,1584.00
2019-05-26T09:00:21.857Z,1532.00
2019-05-26T09:01:21.844Z,1464.00
2019-05-26T09:02:21.831Z,1404.00
2019-05-26T09:03:21.847Z,1364.00
2019-05-26T09:04:21.805Z,1352.00
2019-05-26T09:05:21.813Z,1336.00
2019-05-26T09:06:21.785Z,1372.00
2019-05-26T09:07:21.777Z,1412.00
2019-05-26T09:08:21.767Z,1552.00
2019-05-26T09:09:21.751Z,1424.00
2019-05-26T09:10:21.773Z,1412.00
2019-05-26T09:11:21.736Z,1412.00
2019-05-26T09:12:21.719Z,1448.00
2019-05-26T09:13:21.720Z,1652.00
2019-05-26T09:14:25.279Z,1624.00
2019-05-26T09:15:21.689Z,1580.00
2019-05-26T09:16:21.687Z,1580.00
2019-05-26T09:17:21.681Z,1564.00
2019-05-26T09:18:21.655Z,1552.00
2019-05-26T09:19:21.639Z,1588.00
2019-05-26T09:20:21.638Z,1584.00
2019-05-26T09:21:21.621Z,1600.00
2019-05-26T09:22:21.629Z,1716.00
2019-05-26T09:23:21.609Z,1604.00
2019-05-26T09:24:21.586Z,1632.00
2019-05-26T09:25:21.576Z,1664.00
2019-05-26T09:26:21.577Z,1920.00
2019-05-26T09:27:21.572Z,2032.00
2019-05-26T09:28:21.554Z,1820.00
2019-05-26T09:29:21.535Z,1652.00
2019-05-26T09:30:21.570Z,1508.00
2019-05-26T09:31:21.510Z,1444.00
2019-05-26T09:32:21.500Z,1500.00
2019-05-26T09:33:21.521Z,1536.00
2019-05-26T09:34:21.579Z,1556.00
2019-05-26T09:35:21.485Z,1528.00
2019-05-26T09:36:21.461Z,1552.00
2019-05-26T09:37:21.446Z,1456.00
2019-05-26T09:38:21.453Z,1480.00
2019-05-26T09:39:21.461Z,1444.00
2019-05-26T09:40:21.412Z,1536.00
2019-05-26T09:41:21.402Z,1600.00
2019-05-26T09:42:22.509Z,1744.00
2019-05-26T09:43:21.376Z,1708.00
2019-05-26T09:44:21.369Z,1560.00
2019-05-26T09:45:21.406Z,1376.00
2019-05-26T09:46:21.348Z,1228.00
2019-05-26T09:47:21.347Z,2104.00
2019-05-26T09:48:21.322Z,2856.00
2019-05-26T09:49:21.314Z,3148.00
2019-05-26T09:50:21.322Z,2788.00
2019-05-26T09:51:21.293Z,2792.00
2019-05-26T09:52:21.285Z,3112.00
2019-05-26T09:53:21.282Z,3648.00
2019-05-26T09:54:21.261Z,3216.00
2019-05-26T09:55:21.245Z,3224.00
2019-05-26T09:56:21.259Z,2924.00
2019-05-26T09:57:21.243Z,2840.00
2019-05-26T09:58:21.226Z,3660.00
2019-05-26T09:59:21.217Z,3256.00
2019-05-26T10:00:21.189Z,3552.00
2019-05-26T10:01:21.226Z,2900.00
2019-05-26T10:02:21.182Z,1672.00
2019-05-26T10:03:21.161Z,2264.00
2019-05-26T10:04:21.149Z,2632.00
2019-05-26T10:05:21.134Z,1788.00
2019-05-26T10:06:21.125Z,2108.00
2019-05-26T10:07:21.128Z,1972.00
2019-05-26T10:08:21.109Z,2476.00
2019-05-26T10:09:21.095Z,2100.00
2019-05-26T10:10:21.080Z,1744.00
2019-05-26T10:11:21.071Z,2116.00
2019-05-26T10:12:21.068Z,2188.00
2019-05-26T10:13:31.396Z,2088.00
2019-05-26T10:14:22.037Z,1464.00
2019-05-26T10:15:21.034Z,1380.00
2019-05-26T10:16:21.017Z,1396.00
2019-05-26T10:17:23.211Z,1304.00
2019-05-26T10:18:21.044Z,1332.00
2019-05-26T10:19:21.002Z,1316.00
2019-05-26T10:20:20.971Z,1316.00
2019-05-26T10:21:20.993Z,1240.00
2019-05-26T10:22:20.952Z,1152.00
2019-05-26T10:23:20.959Z,1124.00
2019-05-26T10:24:20.954Z,1216.00
2019-05-26T10:25:20.931Z,1244.00
2019-05-26T10:26:20.921Z,1260.00
2019-05-26T10:27:20.953Z,1352.00
2019-05-26T10:28:20.910Z,1252.00
2019-05-26T10:29:20.889Z,1320.00
2019-05-26T10:30:20.889Z,1420.00
2019-05-26T10:31:20.863Z,1472.00
2019-05-26T10:32:20.870Z,1748.00
2019-05-26T10:33:20.842Z,1360.00
2019-05-26T10:34:20.854Z,1624.00
2019-05-26T10:35:20.823Z,1920.00
2019-05-26T10:36:20.800Z,2092.00
2019-05-26T10:37:20.799Z,2008.00
2019-05-26T10:38:20.782Z,1932.00
2019-05-26T10:39:20.772Z,1692.00
2019-05-26T10:40:20.774Z,1668.00
2019-05-26T10:41:20.758Z,1764.00
2019-05-26T10:42:20.734Z,1800.00
2019-05-26T10:43:20.730Z,1712.00
2019-05-26T10:44:20.711Z,1732.00
2019-05-26T10:45:20.704Z,1832.00
2019-05-26T10:46:20.689Z,1800.00
2019-05-26T10:47:20.715Z,1932.00
2019-05-26T10:48:20.667Z,1708.00
2019-05-26T10:49:20.666Z,1684.00
2019-05-26T10:50:20.642Z,1624.00
2019-05-26T10:51:20.643Z,1532.00
2019-05-26T10:52:20.629Z,1640.00
2019-05-26T10:53:20.623Z,1540.00
2019-05-26T10:54:20.612Z,1564.00
2019-05-26T10:55:20.590Z,1424.00
2019-05-26T10:56:20.583Z,1284.00
2019-05-26T10:57:20.586Z,1308.00
2019-05-26T10:58:20.556Z,1272.00
2019-05-26T10:59:20.559Z,1324.00
2019-05-26T11:00:20.549Z,1176.00
2019-05-26T11:01:20.525Z,1128.00
2019-05-26T11:02:20.531Z,1120.00
2019-05-26T11:03:20.516Z,1188.00
2019-05-26T11:04:20.491Z,1244.00
2019-05-26T11:05:20.493Z,1380.00
2019-05-26T11:06:20.474Z,1328.00
2019-05-26T11:07:20.464Z,1168.00
2019-05-26T11:08:20.469Z,1144.00
2019-05-26T11:09:20.450Z,1152.00
2019-05-26T11:10:20.436Z,1192.00
2019-05-26T11:11:20.418Z,1196.00
2019-05-26T11:12:20.412Z,1132.00
2019-05-26T11:13:20.394Z,1116.00
2019-05-26T11:14:20.392Z,1200.00
2019-05-26T11:15:20.371Z,1244.00
2019-05-26T11:16:20.366Z,1292.00
2019-05-26T11:17:20.405Z,1404.00
2019-05-26T11:18:20.350Z,1332.00
2019-05-26T11:19:20.330Z,1176.00
2019-05-26T11:20:20.333Z,1228.00
2019-05-26T11:21:20.307Z,1228.00
2019-05-26T11:22:20.298Z,1244.00
2019-05-26T11:23:20.307Z,1212.00
2019-05-26T11:24:20.286Z,1220.00
2019-05-26T11:25:20.267Z,1156.00
2019-05-26T11:26:20.258Z,1124.00
2019-05-26T11:27:20.242Z,1160.00
2019-05-26T11:28:20.243Z,1180.00
2019-05-26T11:29:20.230Z,1272.00
2019-05-26T11:30:20.209Z,1360.00
2019-05-26T11:31:20.215Z,1552.00
2019-05-26T11:32:20.185Z,1428.00
2019-05-26T11:33:20.235Z,1432.00
2019-05-26T11:34:20.161Z,1464.00
2019-05-26T11:35:20.214Z,1532.00
2019-05-26T11:36:20.159Z,1580.00
2019-05-26T11:37:20.166Z,1540.00
2019-05-26T11:38:20.119Z,1664.00
2019-05-26T11:39:20.152Z,1820.00
2019-05-26T11:40:20.096Z,1740.00
2019-05-26T11:41:20.097Z,2184.00
2019-05-26T11:42:20.078Z,1768.00
2019-05-26T11:43:20.075Z,1888.00
2019-05-26T11:44:20.053Z,1856.00
2019-05-26T11:45:20.041Z,1952.00
2019-05-26T11:46:20.044Z,1628.00
2019-05-26T11:47:20.021Z,1488.00
2019-05-26T11:48:20.010Z,1516.00
2019-05-26T11:49:20.015Z,1608.00
2019-05-26T11:50:20.108Z,1416.00
2019-05-26T11:51:19.999Z,1580.00
2019-05-26T11:52:20.421Z,1444.00
2019-05-26T11:53:19.956Z,1488.00
2019-05-26T11:54:19.956Z,1556.00
2019-05-26T11:55:19.932Z,1368.00
2019-05-26T11:56:19.942Z,1436.00
2019-05-26T11:57:19.923Z,1324.00
2019-05-26T11:58:19.905Z,1364.00
2019-05-26T11:59:19.893Z,1240.00
2019-05-26T12:00:19.887Z,1016.00
2019-05-26T12:01:22.846Z,1028.00
2019-05-26T12:02:19.870Z,1080.00
2019-05-26T12:03:19.864Z,1132.00
2019-05-26T12:04:19.833Z,1112.00
2019-05-26T12:05:19.823Z,1080.00
2019-05-26T12:06:19.810Z,1200.00
2019-05-26T12:07:19.865Z,1432.00
2019-05-26T12:08:19.789Z,1424.00
2019-05-26T12:09:19.802Z,1340.00
2019-05-26T12:10:19.769Z,1300.00
2019-05-26T12:11:19.761Z,1332.00
2019-05-26T12:12:19.751Z,1544.00
2019-05-26T12:13:19.801Z,1664.00
2019-05-26T12:14:33.749Z,1596.00
2019-05-26T12:15:20.720Z,1652.00
2019-05-26T12:16:19.713Z,1448.00
2019-05-26T12:17:19.694Z,1528.00
2019-05-26T12:18:19.847Z,1532.00
2019-05-26T12:19:19.685Z,1476.00
2019-05-26T12:20:19.710Z,1352.00
2019-05-26T12:21:19.727Z,1472.00
2019-05-26T12:22:19.636Z,1512.00
2019-05-26T12:23:19.653Z,1496.00
2019-05-26T12:24:19.625Z,1456.00
2019-05-26T12:25:19.616Z,1556.00
2019-05-26T12:26:19.604Z,1456.00
2019-05-26T12:27:19.582Z,1512.00
2019-05-26T12:28:19.583Z,1636.00
2019-05-26T12:29:19.578Z,1464.00
2019-05-26T12:30:19.549Z,1392.00
2019-05-26T12:31:19.607Z,1420.00
2019-05-26T12:32:19.536Z,1408.00
2019-05-26T12:33:19.516Z,1192.00